PWSweather.com
Personal Weather Stations
Station Observations
PERMAKAI
WaiukuNZ

WaiukuNZ

Lat: -37.22, Lon: 174.77

Elevation: 219.816

Station Type: WH3081

Latest ConditionsUpdated 7:30:00 PM GMT+12:12 Monday, Nov 19, 2018
Currently Today's Max Today's Min Today's Average
Temperature 52.5°F11.4°C 65.7°F18.7°C 52.5°F11.4°C 58.4°F14.7°C
Dew Point 39.0°F3.9°C 56.5°F13.6°C 38.9°F3.8°C 49.5°F9.7°C
Winds 2.2 mph SW3.5 kmh SW 13.6 mph -21.9 kmh - - 3.3 mph 5.3 kmh
Wind Gusts 3.1 mph5.0 kmh 19.7 mph31.7 kmh - -
Humidity 60% 97% 50% 75%
Pressure 29.64 in1003.7 mb 29.79 in1008.8 mb 29.63 in1003.4 mb -
Precipitation - 0.34 in8.6 mm - -
Hour Temp Dew Point Humidity Winds Wind Gusts Pressure Precip Precip Rate Daily Precip Total
07:30 PM 52.5°F11.4°C 39.0°F3.9°C 60% 2.2 mph SW3.5 kmh SW 3.1 mph5.0 kmh 29.64 in1003.7 mb 0.00 in0.0 mm 0.00 in0.0 mm 0.34 in8.6 mm
07:07 PM 53.8°F12.1°C 38.9°F3.8°C 57% 2.2 mph SW3.5 kmh SW 4.5 mph7.2 kmh 29.64 in1003.7 mb 0.00 in0.0 mm 0.00 in0.0 mm 0.34 in8.6 mm
06:30 PM 57.2°F14.0°C 39.7°F4.3°C 52% 4.5 mph S7.2 kmh S 6.9 mph11.1 kmh 29.63 in1003.4 mb 0.00 in0.0 mm 0.00 in0.0 mm 0.34 in8.6 mm
06:00 PM 59.2°F15.1°C 40.6°F4.8°C 50% 3.1 mph SW5.0 kmh SW 6.0 mph9.7 kmh 29.64 in1003.7 mb 0.00 in0.0 mm 0.00 in0.0 mm 0.34 in8.6 mm
05:30 PM 57.7°F14.3°C 40.2°F4.6°C 52% 7.6 mph WSW12.2 kmh WSW 10.7 mph17.2 kmh 29.63 in1003.4 mb 0.00 in0.0 mm 0.00 in0.0 mm 0.34 in8.6 mm
05:00 PM 58.5°F14.7°C 41.4°F5.2°C 53% 4.5 mph SW7.2 kmh SW 6.9 mph11.1 kmh 29.64 in1003.7 mb 0.00 in0.0 mm 0.00 in0.0 mm 0.34 in8.6 mm
04:30 PM 60.3°F15.7°C 42.6°F5.9°C 52% 7.6 mph S12.2 kmh S 12.1 mph19.5 kmh 29.64 in1003.7 mb 0.00 in0.0 mm 0.00 in0.0 mm 0.34 in8.6 mm
04:00 PM 61.2°F16.2°C 43.9°F6.6°C 53% 4.5 mph SW7.2 kmh SW 6.9 mph11.1 kmh 29.64 in1003.7 mb 0.00 in0.0 mm 0.00 in0.0 mm 0.34 in8.6 mm
03:30 PM 61.5°F16.4°C 42.7°F5.9°C 50% 5.4 mph SW8.7 kmh SW 7.6 mph12.2 kmh 29.64 in1003.7 mb 0.00 in0.0 mm 0.00 in0.0 mm 0.34 in8.6 mm
03:00 PM 64.6°F18.1°C 46.0°F7.8°C 51% 3.8 mph ESE6.1 kmh ESE 7.6 mph12.2 kmh 29.65 in1004.1 mb 0.00 in0.0 mm 0.00 in0.0 mm 0.34 in8.6 mm
02:30 PM 59.4°F15.2°C 42.2°F5.7°C 53% 4.5 mph SW7.2 kmh SW 9.8 mph15.8 kmh 29.67 in1004.7 mb 0.00 in0.0 mm 0.00 in0.0 mm 0.34 in8.6 mm
02:00 PM 60.8°F16.0°C 42.6°F5.9°C 51% 9.8 mph W15.8 kmh W 13.6 mph21.9 kmh 29.66 in1004.4 mb 0.00 in0.0 mm 0.00 in0.0 mm 0.34 in8.6 mm
01:30 PM 63.1°F17.3°C 44.2°F6.8°C 50% 6.9 mph SW11.1 kmh SW 11.4 mph18.3 kmh 29.67 in1004.7 mb 0.00 in0.0 mm 0.00 in0.0 mm 0.34 in8.6 mm
01:00 PM 59.4°F15.2°C 45.9°F7.7°C 61% 8.3 mph SW13.4 kmh SW 14.5 mph23.3 kmh 29.68 in1005.1 mb 0.00 in0.0 mm 0.00 in0.0 mm 0.34 in8.6 mm
12:30 PM 57.7°F14.3°C 46.5°F8.1°C 66% 4.5 mph SW7.2 kmh SW 6.9 mph11.1 kmh 29.69 in1005.4 mb 0.00 in0.0 mm 0.00 in0.0 mm 0.34 in8.6 mm
12:00 PM 59.0°F15.0°C 49.6°F9.8°C 71% 13.6 mph SSW21.9 kmh SSW 19.7 mph31.7 kmh 29.70 in1005.8 mb 0.01 in0.3 mm 0.00 in0.0 mm 0.34 in8.6 mm
11:30 AM 58.4°F14.7°C 51.9°F11.1°C 79% 7.6 mph SW12.2 kmh SW 12.1 mph19.5 kmh 29.70 in1005.8 mb 0.04 in1.0 mm 0.04 in1.0 mm 0.34 in8.6 mm
11:00 AM 57.0°F13.9°C 52.6°F11.4°C 85% 6.9 mph SW11.1 kmh SW 13.6 mph21.9 kmh 29.71 in1006.1 mb 0.02 in0.5 mm 0.04 in1.0 mm 0.33 in8.4 mm
10:30 AM 64.0°F17.8°C 50.3°F10.2°C 61% 4.5 mph NE7.2 kmh NE 6.9 mph11.1 kmh 29.69 in1005.4 mb 0.00 in0.0 mm 0.00 in0.0 mm 0.31 in7.9 mm
10:00 AM 65.7°F18.7°C 51.8°F11.0°C 61% 4.5 mph W7.2 kmh W 8.3 mph13.4 kmh 29.70 in1005.8 mb 0.00 in0.0 mm 0.00 in0.0 mm 0.31 in7.9 mm
09:30 AM 62.1°F16.7°C 51.8°F11.0°C 69% 1.6 mph SW2.6 kmh SW 3.8 mph6.1 kmh 29.70 in1005.8 mb 0.00 in0.0 mm 0.00 in0.0 mm 0.31 in7.9 mm
09:00 AM 59.2°F15.1°C 51.6°F10.9°C 76% 3.8 mph N6.1 kmh N 6.0 mph9.7 kmh 29.71 in1006.1 mb 0.00 in0.0 mm 0.00 in0.0 mm 0.31 in7.9 mm
08:30 AM 61.9°F16.6°C 52.4°F11.3°C 71% 1.6 mph NW2.6 kmh NW 3.1 mph5.0 kmh 29.71 in1006.1 mb 0.00 in0.0 mm 0.00 in0.0 mm 0.31 in7.9 mm
08:00 AM 61.3°F16.3°C 55.8°F13.2°C 82% 0.7 mph NW1.1 kmh NW 1.6 mph2.6 kmh 29.71 in1006.1 mb 0.00 in0.0 mm 0.00 in0.0 mm 0.31 in7.9 mm
07:00 AM 56.7°F13.7°C 55.8°F13.2°C 97% Calm Calm -- 29.72 in1006.4 mb 0.00 in0.0 mm 0.00 in0.0 mm 0.31 in7.9 mm
06:30 AM 55.4°F13.0°C 54.6°F12.6°C 97% Calm Calm -- 29.71 in1006.1 mb 0.00 in0.0 mm 0.00 in0.0 mm 0.31 in7.9 mm
06:00 AM 54.0°F12.2°C 52.8°F11.6°C 96% Calm Calm -- 29.72 in1006.4 mb 0.00 in0.0 mm 0.00 in0.0 mm 0.31 in7.9 mm
05:30 AM 53.8°F12.1°C 52.7°F11.5°C 96% Calm Calm -- 29.72 in1006.4 mb 0.01 in0.3 mm 0.00 in0.0 mm 0.31 in7.9 mm
05:00 AM 53.8°F12.1°C 52.7°F11.5°C 96% 0.7 mph NE1.1 kmh NE 1.6 mph2.6 kmh 29.73 in1006.8 mb 0.02 in0.5 mm 0.02 in0.5 mm 0.31 in7.9 mm
04:30 AM 54.9°F12.7°C 54.0°F12.2°C 97% 2.2 mph SW3.5 kmh SW 3.8 mph6.1 kmh 29.74 in1007.1 mb 0.01 in0.3 mm 0.02 in0.5 mm 0.30 in7.6 mm
04:00 AM 56.5°F13.6°C 55.6°F13.1°C 97% Calm Calm -- 29.73 in1006.8 mb 0.00 in0.0 mm 0.00 in0.0 mm 0.28 in7.1 mm
03:30 AM 56.3°F13.5°C 55.5°F13.1°C 97% Calm Calm -- 29.73 in1006.8 mb 0.00 in0.0 mm 0.00 in0.0 mm 0.28 in7.1 mm
03:00 AM 56.7°F13.7°C 55.8°F13.2°C 97% Calm Calm -- 29.75 in1007.5 mb 0.00 in0.0 mm 0.00 in0.0 mm 0.28 in7.1 mm
02:30 AM 57.0°F13.9°C 56.2°F13.4°C 97% 1.6 mph W2.6 kmh W 2.2 mph3.5 kmh 29.75 in1007.5 mb 0.08 in2.0 mm 0.00 in0.0 mm 0.28 in7.1 mm
02:00 AM 57.4°F14.1°C 56.0°F13.3°C 95% 0.7 mph SW1.1 kmh SW 1.6 mph2.6 kmh 29.76 in1007.8 mb 0.09 in2.3 mm 0.16 in4.1 mm 0.28 in7.1 mm
01:30 AM 57.7°F14.3°C 56.3°F13.5°C 95% Calm Calm -- 29.77 in1008.1 mb 0.01 in0.3 mm 0.00 in0.0 mm 0.20 in5.1 mm
01:00 AM 57.9°F14.4°C 56.5°F13.6°C 95% Calm Calm -- 29.78 in1008.5 mb 0.11 in2.8 mm 0.00 in0.0 mm 0.19 in4.8 mm
12:30 AM 57.9°F14.4°C 56.2°F13.4°C 94% Calm Calm -- 29.79 in1008.8 mb 0.18 in4.6 mm 0.22 in5.6 mm 0.19 in4.8 mm
12:00 AM 57.6°F14.2°C 55.8°F13.2°C 94% Calm Calm 1.6 mph2.6 kmh 29.79 in1008.8 mb 0.07 in1.8 mm 0.00 in0.0 mm 0.08 in2.0 mm